createdAt,value
2018-03-24T00:00:11.571Z,7.80
2018-03-24T00:01:55.486Z,7.81
2018-03-24T00:03:32.865Z,7.91
2018-03-24T00:05:10.954Z,7.99
2018-03-24T00:06:48.821Z,7.97
2018-03-24T00:08:26.950Z,7.88
2018-03-24T00:10:06.315Z,7.91
2018-03-24T00:11:44.513Z,7.91
2018-03-24T00:13:21.861Z,7.92
2018-03-24T00:15:01.191Z,7.89
2018-03-24T00:16:42.635Z,7.86
2018-03-24T00:18:22.328Z,7.97
2018-03-24T00:20:05.526Z,8.06
2018-03-24T00:21:46.146Z,8.00
2018-03-24T00:23:24.765Z,7.99
2018-03-24T00:25:05.339Z,7.86
2018-03-24T00:26:44.696Z,7.78
2018-03-24T00:28:22.562Z,7.74
2018-03-24T00:29:59.930Z,7.73
2018-03-24T00:31:38.037Z,7.70
2018-03-24T00:33:16.196Z,7.65
2018-03-24T00:34:53.637Z,7.62
2018-03-24T00:36:32.327Z,7.54
2018-03-24T00:38:09.700Z,7.59
2018-03-24T00:39:47.883Z,7.55
2018-03-24T00:41:25.597Z,7.61
2018-03-24T00:43:04.089Z,7.69
2018-03-24T00:44:41.542Z,7.79
2018-03-24T00:46:19.057Z,7.78
2018-03-24T00:47:56.974Z,7.65
2018-03-24T00:49:34.945Z,7.68
2018-03-24T00:51:12.668Z,7.67
2018-03-24T00:52:50.293Z,7.73
2018-03-24T00:54:27.717Z,7.62
2018-03-24T00:56:05.479Z,7.57
2018-03-24T00:57:43.067Z,7.52
2018-03-24T00:59:22.333Z,7.50
2018-03-24T01:01:04.827Z,7.52
2018-03-24T01:02:44.494Z,7.49
2018-03-24T01:04:22.253Z,7.46
2018-03-24T01:05:59.852Z,7.53
2018-03-24T01:07:38.794Z,7.53
2018-03-24T01:09:17.153Z,7.48
2018-03-24T01:10:55.626Z,7.52
2018-03-24T01:12:34.069Z,7.57
2018-03-24T01:14:12.196Z,7.62
2018-03-24T01:15:50.210Z,7.62
2018-03-24T01:17:27.871Z,7.68
2018-03-24T01:19:06.283Z,7.68
2018-03-24T01:20:49.453Z,7.72
2018-03-24T01:22:30.292Z,7.72
2018-03-24T01:24:09.260Z,7.73
2018-03-24T01:25:49.089Z,7.71
2018-03-24T01:27:27.706Z,7.75
2018-03-24T01:29:08.792Z,7.76
2018-03-24T01:30:46.590Z,7.67
2018-03-24T01:32:24.562Z,7.51
2018-03-24T01:34:02.327Z,7.60
2018-03-24T01:35:40.821Z,7.54
2018-03-24T01:37:23.799Z,7.51
2018-03-24T01:39:01.393Z,7.50
2018-03-24T01:40:39.191Z,7.47
2018-03-24T01:42:17.743Z,7.46
2018-03-24T01:43:55.812Z,7.48
2018-03-24T01:45:34.897Z,7.46
2018-03-24T01:47:16.174Z,7.42
2018-03-24T01:50:40.381Z,7.32
2018-03-24T01:52:18.016Z,7.26
2018-03-24T01:53:57.817Z,7.32
2018-03-24T01:55:37.242Z,7.36
2018-03-24T01:57:16.107Z,7.37
2018-03-24T01:58:54.804Z,7.34
2018-03-24T02:00:41.951Z,7.32
2018-03-24T02:02:20.997Z,7.35
2018-03-24T02:03:59.565Z,7.22
2018-03-24T02:05:37.624Z,7.12
2018-03-24T02:07:19.210Z,7.05
2018-03-24T02:09:01.146Z,7.01
2018-03-24T02:10:40.885Z,6.87
2018-03-24T02:12:19.251Z,6.77
2018-03-24T02:13:59.323Z,6.78
2018-03-24T02:15:38.648Z,6.72
2018-03-24T02:17:17.591Z,6.75
2018-03-24T02:18:56.059Z,6.78
2018-03-24T02:20:36.593Z,6.86
2018-03-24T02:22:15.600Z,7.07
2018-03-24T02:23:55.748Z,7.01
2018-03-24T02:25:34.601Z,6.99
2018-03-24T02:27:13.143Z,6.98
2018-03-24T02:28:51.906Z,6.91
2018-03-24T02:30:31.706Z,6.76
2018-03-24T02:32:13.247Z,6.75
2018-03-24T02:33:51.835Z,6.67
2018-03-24T02:35:42.513Z,6.56
2018-03-24T02:37:20.011Z,6.33
2018-03-24T02:38:57.456Z,6.34
2018-03-24T02:40:36.035Z,6.28
2018-03-24T02:42:13.981Z,6.23
2018-03-24T02:43:51.716Z,6.27
2018-03-24T02:45:29.250Z,6.23
2018-03-24T02:47:07.365Z,6.24
2018-03-24T02:48:44.945Z,6.13
2018-03-24T02:50:22.626Z,6.00
2018-03-24T02:52:00.484Z,5.93
2018-03-24T02:53:38.997Z,5.87
2018-03-24T02:55:16.636Z,5.95
2018-03-24T02:56:54.675Z,5.85
2018-03-24T02:58:33.097Z,5.90
2018-03-24T03:00:11.309Z,5.78
2018-03-24T03:01:49.891Z,5.71
2018-03-24T03:03:28.271Z,5.75
2018-03-24T03:05:06.023Z,5.67
2018-03-24T03:06:43.981Z,5.68
2018-03-24T03:08:21.190Z,5.66
2018-03-24T03:09:58.799Z,5.55
2018-03-24T03:11:36.703Z,5.52
2018-03-24T03:13:14.690Z,5.53
2018-03-24T03:14:52.103Z,5.50
2018-03-24T03:16:30.036Z,5.45
2018-03-24T03:18:07.496Z,5.47
2018-03-24T03:19:45.795Z,5.49
2018-03-24T03:21:23.757Z,5.40
2018-03-24T03:23:01.216Z,5.34
2018-03-24T03:24:38.973Z,5.33
2018-03-24T03:26:17.148Z,5.20
2018-03-24T03:27:54.974Z,5.13
2018-03-24T03:29:32.660Z,5.16
2018-03-24T03:31:10.371Z,5.21
2018-03-24T03:32:47.866Z,5.22
2018-03-24T03:34:24.970Z,5.18
2018-03-24T03:36:02.291Z,5.19
2018-03-24T03:37:39.767Z,5.19
2018-03-24T03:39:17.439Z,5.21
2018-03-24T03:40:55.017Z,5.16
2018-03-24T03:42:32.309Z,5.18
2018-03-24T03:44:09.486Z,5.23
2018-03-24T03:45:48.114Z,5.23
2018-03-24T03:47:25.513Z,5.33
2018-03-24T03:49:03.303Z,5.26
2018-03-24T03:50:40.769Z,5.26
2018-03-24T03:52:18.648Z,5.30
2018-03-24T03:53:56.107Z,5.36
2018-03-24T03:55:33.491Z,5.27
2018-03-24T03:57:10.978Z,5.40
2018-03-24T03:58:48.622Z,5.34
2018-03-24T04:00:26.117Z,5.26
2018-03-24T04:02:03.746Z,5.28
2018-03-24T04:03:41.683Z,5.28
2018-03-24T04:05:19.354Z,5.23
2018-03-24T04:06:56.607Z,5.30
2018-03-24T04:08:34.026Z,5.31
2018-03-24T04:10:12.047Z,5.38
2018-03-24T04:11:50.315Z,5.39
2018-03-24T04:13:27.740Z,5.35
2018-03-24T04:15:08.039Z,5.38
2018-03-24T04:16:45.148Z,5.40
2018-03-24T04:18:23.484Z,5.28
2018-03-24T04:20:01.562Z,5.30
2018-03-24T04:21:39.773Z,5.43
2018-03-24T04:23:16.809Z,5.47
2018-03-24T04:24:54.176Z,5.41
2018-03-24T04:26:31.270Z,5.39
2018-03-24T04:28:09.391Z,5.65
2018-03-24T04:29:46.540Z,5.58
2018-03-24T04:31:24.035Z,5.51
2018-03-24T04:33:01.067Z,5.48
2018-03-24T04:34:39.656Z,5.41
2018-03-24T04:36:16.863Z,5.29
2018-03-24T04:37:54.806Z,5.26
2018-03-24T04:39:31.786Z,5.17
2018-03-24T04:41:09.084Z,5.05
2018-03-24T04:42:46.446Z,5.00
2018-03-24T04:44:25.211Z,5.04
2018-03-24T04:46:08.037Z,4.97
2018-03-24T04:47:45.220Z,4.90
2018-03-24T04:49:22.421Z,4.90
2018-03-24T04:50:59.857Z,4.85
2018-03-24T04:52:38.090Z,4.81
2018-03-24T04:54:15.831Z,4.74
2018-03-24T04:55:53.221Z,4.72
2018-03-24T04:57:30.349Z,4.69
2018-03-24T04:59:07.141Z,4.64
2018-03-24T05:00:45.577Z,4.60
2018-03-24T05:02:23.934Z,4.66
2018-03-24T05:04:01.171Z,4.66
2018-03-24T05:05:38.299Z,4.65
2018-03-24T05:07:15.227Z,4.66
2018-03-24T05:08:54.366Z,4.70
2018-03-24T05:10:32.374Z,4.66
2018-03-24T05:12:09.687Z,4.62
2018-03-24T05:13:47.590Z,4.58
2018-03-24T05:15:25.219Z,4.65
2018-03-24T05:17:04.692Z,4.66
2018-03-24T05:18:42.240Z,4.67
2018-03-24T05:20:19.972Z,4.65
2018-03-24T05:21:58.224Z,4.67
2018-03-24T05:23:36.055Z,4.71
2018-03-24T05:25:13.203Z,4.73
2018-03-24T05:26:50.504Z,4.79
2018-03-24T05:28:28.353Z,4.82
2018-03-24T05:30:07.861Z,4.72
2018-03-24T05:31:45.242Z,4.70
2018-03-24T05:33:22.433Z,4.76
2018-03-24T05:35:00.870Z,4.62
2018-03-24T05:36:39.116Z,4.61
2018-03-24T05:38:16.553Z,4.68
2018-03-24T05:39:54.657Z,4.63
2018-03-24T05:41:32.209Z,4.65
2018-03-24T05:43:11.008Z,4.73
2018-03-24T05:44:48.988Z,4.71
2018-03-24T05:46:26.754Z,4.78
2018-03-24T05:48:06.552Z,4.81
2018-03-24T05:49:44.009Z,4.84
2018-03-24T05:51:23.179Z,4.85
2018-03-24T05:53:05.761Z,4.94
2018-03-24T05:54:44.154Z,5.12
2018-03-24T05:56:21.710Z,5.13
2018-03-24T05:58:03.977Z,5.40
2018-03-24T05:59:42.574Z,5.60
2018-03-24T06:01:20.703Z,5.78
2018-03-24T06:02:58.439Z,5.96
2018-03-24T06:04:36.756Z,6.11
2018-03-24T06:06:15.862Z,6.18
2018-03-24T06:07:53.567Z,6.21
2018-03-24T06:09:31.709Z,6.08
2018-03-24T06:11:09.753Z,5.84
2018-03-24T06:12:47.343Z,5.68
2018-03-24T06:14:27.565Z,5.56
2018-03-24T06:16:05.499Z,5.38
2018-03-24T06:17:43.581Z,5.29
2018-03-24T06:19:22.045Z,5.29
2018-03-24T06:21:00.978Z,5.19
2018-03-24T06:22:38.979Z,5.22
2018-03-24T06:24:16.844Z,5.31
2018-03-24T06:25:54.809Z,5.37
2018-03-24T06:27:33.378Z,5.45
2018-03-24T06:29:11.865Z,5.47
2018-03-24T06:30:49.760Z,5.53
2018-03-24T06:32:27.690Z,5.58
2018-03-24T06:34:06.254Z,5.65
2018-03-24T06:35:44.493Z,5.78
2018-03-24T06:37:22.375Z,5.79
2018-03-24T06:39:00.959Z,5.88
2018-03-24T06:40:39.414Z,5.93
2018-03-24T06:42:17.197Z,6.09
2018-03-24T06:43:55.270Z,6.39
2018-03-24T06:45:34.433Z,6.60
2018-03-24T06:47:12.758Z,6.83
2018-03-24T06:48:50.490Z,7.33
2018-03-24T06:50:29.426Z,7.09
2018-03-24T06:52:08.937Z,7.14
2018-03-24T06:53:48.614Z,7.10
2018-03-24T06:55:26.877Z,6.93
2018-03-24T06:57:04.671Z,6.92
2018-03-24T06:58:43.541Z,7.15
2018-03-24T07:00:21.780Z,7.06
2018-03-24T07:01:59.564Z,6.76
2018-03-24T07:03:37.210Z,6.71
2018-03-24T07:05:15.838Z,6.58
2018-03-24T07:06:54.165Z,6.66
2018-03-24T07:08:32.677Z,6.80
2018-03-24T07:10:11.221Z,6.84
2018-03-24T07:11:49.165Z,6.82
2018-03-24T07:13:27.289Z,6.93
2018-03-24T07:15:07.562Z,7.23
2018-03-24T07:16:45.521Z,7.29
2018-03-24T07:18:23.326Z,7.21
2018-03-24T07:20:01.496Z,7.03
2018-03-24T07:21:39.238Z,7.03
2018-03-24T07:23:18.164Z,6.96
2018-03-24T07:24:55.574Z,7.11
2018-03-24T07:26:33.828Z,7.50
2018-03-24T07:28:11.128Z,7.67
2018-03-24T07:29:48.519Z,7.86
2018-03-24T07:31:26.022Z,7.77
2018-03-24T07:33:03.912Z,7.92
2018-03-24T07:34:41.284Z,8.37
2018-03-24T07:36:19.596Z,8.49
2018-03-24T07:37:56.899Z,8.36
2018-03-24T07:39:35.527Z,8.65
2018-03-24T07:41:13.269Z,9.05
2018-03-24T07:42:50.691Z,9.11
2018-03-24T07:44:28.259Z,9.44
2018-03-24T07:46:06.044Z,9.89
2018-03-24T07:47:44.182Z,9.65
2018-03-24T07:49:21.338Z,9.53
2018-03-24T07:50:58.502Z,9.27
2018-03-24T07:52:36.290Z,9.07
2018-03-24T07:54:13.354Z,8.95
2018-03-24T07:55:50.622Z,8.95
2018-03-24T07:57:29.696Z,8.90
2018-03-24T07:59:07.256Z,8.78
2018-03-24T08:00:45.442Z,8.74
2018-03-24T08:02:22.833Z,8.62
2018-03-24T08:04:00.325Z,8.46
2018-03-24T08:05:38.231Z,8.37
2018-03-24T08:07:15.591Z,8.19
2018-03-24T08:08:53.479Z,8.16
2018-03-24T08:10:32.479Z,8.19
2018-03-24T08:12:10.301Z,8.08
2018-03-24T08:13:48.167Z,7.98
2018-03-24T08:15:25.577Z,8.23
2018-03-24T08:17:02.977Z,8.46
2018-03-24T08:18:42.375Z,8.58
2018-03-24T08:20:19.609Z,8.65
2018-03-24T08:21:56.930Z,8.66
2018-03-24T08:23:34.481Z,8.84
2018-03-24T08:25:12.042Z,8.98
2018-03-24T08:26:49.804Z,8.98
2018-03-24T08:28:26.948Z,9.04
2018-03-24T08:30:06.260Z,9.23
2018-03-24T08:31:43.853Z,9.38
2018-03-24T08:33:21.768Z,9.33
2018-03-24T08:34:59.433Z,9.30
2018-03-24T08:36:37.691Z,9.34
2018-03-24T08:38:14.910Z,9.47
2018-03-24T08:39:52.087Z,9.53
2018-03-24T08:41:30.482Z,9.85
2018-03-24T08:43:08.443Z,10.29
2018-03-24T08:44:46.168Z,11.03
2018-03-24T08:46:23.288Z,11.57
2018-03-24T08:48:00.758Z,11.94
2018-03-24T08:49:37.833Z,12.11
2018-03-24T08:51:15.552Z,12.12
2018-03-24T08:52:54.093Z,12.12
2018-03-24T08:54:31.982Z,12.26
2018-03-24T08:56:09.561Z,12.31
2018-03-24T08:57:47.543Z,12.56
2018-03-24T08:59:24.514Z,12.64
2018-03-24T09:01:01.879Z,12.70
2018-03-24T09:02:39.101Z,13.00
2018-03-24T09:04:17.587Z,12.99
2018-03-24T09:05:55.511Z,13.20
2018-03-24T09:07:33.108Z,13.19
2018-03-24T09:09:10.779Z,13.04
2018-03-24T09:10:48.472Z,13.01
2018-03-24T09:12:36.844Z,12.88
2018-03-24T09:14:14.126Z,12.69
2018-03-24T09:15:51.354Z,12.76
2018-03-24T09:17:29.103Z,12.66
2018-03-24T09:19:07.500Z,12.70
2018-03-24T09:20:45.058Z,12.75
2018-03-24T09:22:22.507Z,12.67
2018-03-24T09:23:59.797Z,12.34
2018-03-24T09:25:37.549Z,11.76
2018-03-24T09:27:15.088Z,11.98
2018-03-24T09:28:52.163Z,12.53
2018-03-24T09:30:31.244Z,12.85
2018-03-24T09:32:08.752Z,12.88
2018-03-24T09:33:46.016Z,13.10
2018-03-24T09:35:23.070Z,12.54
2018-03-24T09:37:00.865Z,12.34
2018-03-24T09:38:38.418Z,12.38
2018-03-24T09:40:16.208Z,12.06
2018-03-24T09:41:53.981Z,11.28
2018-03-24T09:43:31.901Z,10.88
2018-03-24T09:45:09.895Z,10.77
2018-03-24T09:46:47.137Z,11.02
2018-03-24T09:48:25.043Z,11.69
2018-03-24T09:50:02.749Z,12.33
2018-03-24T09:51:41.941Z,12.59
2018-03-24T09:53:21.258Z,12.62
2018-03-24T09:54:59.145Z,12.64
2018-03-24T09:56:40.728Z,13.05
2018-03-24T09:58:19.290Z,13.43
2018-03-24T10:00:23.210Z,13.40
2018-03-24T10:02:06.266Z,13.52
2018-03-24T10:03:44.506Z,12.62
2018-03-24T10:05:22.131Z,11.73
2018-03-24T10:06:59.736Z,11.41
2018-03-24T10:08:37.831Z,11.32
2018-03-24T10:10:15.367Z,11.34
2018-03-24T10:11:53.992Z,11.15
2018-03-24T10:13:31.348Z,11.01
2018-03-24T10:15:10.474Z,10.82
2018-03-24T10:16:47.875Z,10.78
2018-03-24T10:18:26.055Z,10.79
2018-03-24T10:20:03.959Z,10.87
2018-03-24T10:21:42.727Z,11.17
2018-03-24T10:23:21.447Z,11.60
2018-03-24T10:24:58.959Z,11.78
2018-03-24T10:26:37.221Z,11.99
2018-03-24T10:28:15.960Z,12.14
2018-03-24T10:29:57.040Z,12.19
2018-03-24T10:31:37.482Z,12.04
2018-03-24T10:33:14.839Z,11.64
2018-03-24T10:34:57.754Z,11.44
2018-03-24T10:37:37.187Z,11.40
2018-03-24T10:39:14.811Z,11.14
2018-03-24T10:40:52.980Z,11.10
2018-03-24T10:42:31.447Z,11.17
2018-03-24T10:44:09.078Z,11.32
2018-03-24T10:45:46.964Z,11.41
2018-03-24T10:47:25.349Z,11.62
2018-03-24T10:49:03.075Z,11.77
2018-03-24T10:50:43.212Z,11.39
2018-03-24T10:52:21.740Z,11.11
2018-03-24T10:54:03.660Z,11.04
2018-03-24T10:55:45.960Z,11.06
2018-03-24T10:57:23.457Z,11.12
2018-03-24T10:59:00.659Z,11.27
2018-03-24T11:00:42.829Z,11.34
2018-03-24T11:02:22.469Z,11.82
2018-03-24T11:04:00.413Z,12.46
2018-03-24T11:05:38.385Z,12.64
2018-03-24T11:07:18.297Z,12.27
2018-03-24T11:08:56.929Z,12.05
2018-03-24T11:10:40.675Z,11.78
2018-03-24T11:12:20.206Z,11.40
2018-03-24T11:13:59.662Z,11.14
2018-03-24T11:15:38.245Z,11.09
2018-03-24T11:17:18.215Z,11.21
2018-03-24T11:18:57.681Z,11.52
2018-03-24T11:22:11.781Z,12.78
2018-03-24T11:23:49.630Z,13.16
2018-03-24T11:25:26.636Z,12.90
2018-03-24T11:27:20.089Z,12.48
2018-03-24T11:28:57.518Z,12.66
2018-03-24T11:30:35.738Z,12.91
2018-03-24T11:32:14.274Z,13.43
2018-03-24T11:33:52.191Z,13.91
2018-03-24T11:35:30.878Z,14.22
2018-03-24T11:37:08.478Z,14.46
2018-03-24T11:38:45.970Z,14.33
2018-03-24T11:40:24.316Z,14.20
2018-03-24T11:42:03.068Z,14.25
2018-03-24T11:43:40.602Z,14.11
2018-03-24T11:47:55.027Z,12.89
2018-03-24T11:49:33.252Z,12.52
2018-03-24T11:51:13.604Z,12.21
2018-03-24T11:52:50.990Z,12.34
2018-03-24T11:54:41.350Z,12.41
2018-03-24T11:56:18.736Z,13.05
2018-03-24T11:57:56.377Z,13.22
2018-03-24T12:01:15.535Z,12.62
2018-03-24T12:02:54.132Z,12.57
2018-03-24T12:04:31.580Z,12.61
2018-03-24T12:06:08.625Z,12.90
2018-03-24T12:07:45.982Z,13.25
2018-03-24T12:09:24.317Z,13.64
2018-03-24T12:11:02.671Z,14.14
2018-03-24T12:12:40.013Z,14.48
2018-03-24T12:14:17.239Z,14.58
2018-03-24T12:15:55.141Z,14.70
2018-03-24T12:17:33.552Z,14.99
2018-03-24T12:19:11.077Z,15.29
2018-03-24T12:20:49.180Z,15.26
2018-03-24T12:22:26.687Z,15.24
2018-03-24T12:24:04.330Z,15.26
2018-03-24T12:25:41.665Z,15.23
2018-03-24T12:27:18.916Z,15.21
2018-03-24T12:28:56.678Z,14.91
2018-03-24T12:30:34.640Z,14.64
2018-03-24T12:32:11.873Z,14.20
2018-03-24T12:33:50.169Z,13.48
2018-03-24T12:35:27.435Z,13.24
2018-03-24T12:37:05.069Z,13.16
2018-03-24T12:38:43.382Z,12.97
2018-03-24T12:40:21.251Z,12.68
2018-03-24T12:41:58.878Z,12.71
2018-03-24T12:43:36.202Z,12.99
2018-03-24T12:45:15.155Z,13.19
2018-03-24T12:46:54.449Z,13.27
2018-03-24T12:48:31.568Z,13.04
2018-03-24T12:50:08.627Z,12.64
2018-03-24T12:51:46.930Z,12.45
2018-03-24T12:53:23.874Z,12.26
2018-03-24T12:55:00.677Z,12.23
2018-03-24T12:56:38.878Z,12.19
2018-03-24T12:58:16.919Z,12.28
2018-03-24T12:59:54.047Z,12.64
2018-03-24T13:01:31.114Z,12.69
2018-03-24T13:03:09.339Z,12.28
2018-03-24T13:04:46.991Z,11.97
2018-03-24T13:06:25.047Z,11.95
2018-03-24T13:08:04.219Z,12.06
2018-03-24T13:09:44.162Z,12.26
2018-03-24T13:11:23.171Z,12.39
2018-03-24T13:13:00.553Z,12.42
2018-03-24T13:14:37.732Z,12.44
2018-03-24T13:16:15.646Z,12.41
2018-03-24T13:17:52.672Z,12.44
2018-03-24T13:19:29.692Z,12.40
2018-03-24T13:21:06.854Z,12.44
2018-03-24T13:22:47.574Z,12.42
2018-03-24T13:24:25.456Z,12.56
2018-03-24T13:26:04.016Z,12.83
2018-03-24T13:27:41.263Z,12.95
2018-03-24T13:29:18.803Z,13.09
2018-03-24T13:30:57.609Z,12.84
2018-03-24T13:32:34.368Z,12.64
2018-03-24T13:34:12.489Z,12.55
2018-03-24T13:35:50.021Z,12.51
2018-03-24T13:37:28.103Z,12.50
2018-03-24T13:39:05.546Z,12.54
2018-03-24T13:40:43.058Z,12.55
2018-03-24T13:42:20.373Z,12.61
2018-03-24T13:43:57.434Z,12.69
2018-03-24T13:45:34.728Z,12.73
2018-03-24T13:47:11.816Z,12.63
2018-03-24T13:48:49.554Z,12.67
2018-03-24T13:50:26.908Z,12.65
2018-03-24T13:52:04.985Z,12.63
2018-03-24T13:53:42.813Z,12.75
2018-03-24T13:55:20.292Z,12.76
2018-03-24T13:57:02.444Z,12.85
2018-03-24T13:58:39.661Z,12.87
2018-03-24T14:00:19.455Z,13.03
2018-03-24T14:01:57.852Z,12.97
2018-03-24T14:03:36.530Z,12.93
2018-03-24T14:05:14.093Z,12.93
2018-03-24T14:06:52.938Z,13.08
2018-03-24T14:08:30.851Z,13.05
2018-03-24T14:10:12.177Z,13.15
2018-03-24T14:11:53.209Z,13.06
2018-03-24T14:13:32.463Z,13.16
2018-03-24T14:15:16.665Z,13.19
2018-03-24T14:16:55.560Z,13.28
2018-03-24T14:18:33.356Z,13.43
2018-03-24T14:20:14.649Z,13.57
2018-03-24T14:21:54.660Z,13.64
2018-03-24T14:23:32.206Z,13.73
2018-03-24T14:25:11.105Z,13.71
2018-03-24T14:26:51.464Z,13.49
2018-03-24T14:28:28.955Z,13.70
2018-03-24T14:30:07.283Z,14.15
2018-03-24T14:31:44.917Z,14.24
2018-03-24T14:33:25.234Z,14.55
2018-03-24T14:35:08.669Z,14.97
2018-03-24T14:36:47.417Z,14.52
2018-03-24T14:38:24.516Z,13.77
2018-03-24T14:40:04.191Z,13.53
2018-03-24T14:41:42.499Z,13.83
2018-03-24T14:43:20.320Z,14.06
2018-03-24T14:44:58.300Z,13.68
2018-03-24T14:46:35.438Z,13.48
2018-03-24T14:48:16.220Z,13.44
2018-03-24T14:49:54.102Z,13.40
2018-03-24T14:51:31.142Z,13.27
2018-03-24T14:53:08.353Z,13.28
2018-03-24T14:54:46.090Z,13.25
2018-03-24T14:56:23.197Z,13.23
2018-03-24T14:58:01.441Z,13.28
2018-03-24T14:59:38.856Z,13.34
2018-03-24T15:01:16.579Z,13.65
2018-03-24T15:02:54.628Z,13.65
2018-03-24T15:04:37.899Z,13.58
2018-03-24T15:06:15.233Z,13.48
2018-03-24T15:07:54.334Z,13.23
2018-03-24T15:09:31.472Z,13.18
2018-03-24T15:11:08.803Z,13.21
2018-03-24T15:12:46.272Z,13.16
2018-03-24T15:14:25.280Z,13.24
2018-03-24T15:16:05.416Z,13.31
2018-03-24T15:17:43.380Z,13.36
2018-03-24T15:19:21.254Z,13.02
2018-03-24T15:20:59.839Z,12.86
2018-03-24T15:22:37.072Z,12.86
2018-03-24T15:24:14.115Z,12.86
2018-03-24T15:25:52.770Z,13.01
2018-03-24T15:27:30.299Z,13.04
2018-03-24T15:29:22.182Z,13.08
2018-03-24T15:31:22.111Z,13.15
2018-03-24T15:33:13.259Z,13.17
2018-03-24T15:36:10.020Z,13.09
2018-03-24T15:37:47.355Z,12.95
2018-03-24T15:39:24.781Z,12.99
2018-03-24T15:41:02.021Z,13.17
2018-03-24T15:42:39.053Z,13.17
2018-03-24T15:44:17.041Z,13.21
2018-03-24T15:45:54.627Z,13.17
2018-03-24T15:47:33.548Z,13.21
2018-03-24T15:49:11.616Z,13.43
2018-03-24T15:50:49.321Z,13.42
2018-03-24T15:52:27.676Z,13.41
2018-03-24T15:54:06.464Z,13.44
2018-03-24T15:55:44.380Z,13.53
2018-03-24T15:57:21.641Z,13.46
2018-03-24T15:59:04.174Z,13.38
2018-03-24T16:00:41.373Z,13.46
2018-03-24T16:02:18.567Z,13.37
2018-03-24T16:03:55.942Z,13.33
2018-03-24T16:05:33.370Z,13.28
2018-03-24T16:07:10.548Z,13.35
2018-03-24T16:08:48.512Z,13.47
2018-03-24T16:10:25.913Z,13.48
2018-03-24T16:12:04.751Z,13.42
2018-03-24T16:13:42.158Z,13.37
2018-03-24T16:15:20.013Z,13.72
2018-03-24T16:16:57.548Z,13.78
2018-03-24T16:18:35.216Z,13.95
2018-03-24T16:20:12.347Z,14.02
2018-03-24T16:21:50.134Z,14.16
2018-03-24T16:23:27.275Z,13.70
2018-03-24T16:25:04.913Z,13.26
2018-03-24T16:26:42.979Z,13.00
2018-03-24T16:28:20.057Z,12.88
2018-03-24T16:29:58.431Z,12.74
2018-03-24T16:31:36.370Z,12.83
2018-03-24T16:33:14.408Z,12.80
2018-03-24T16:34:51.928Z,12.72
2018-03-24T16:36:29.723Z,12.61
2018-03-24T16:38:07.539Z,12.59
2018-03-24T16:39:45.303Z,12.54
2018-03-24T16:41:22.954Z,12.53
2018-03-24T16:43:01.388Z,12.55
2018-03-24T16:44:38.921Z,12.59
2018-03-24T16:46:16.377Z,12.61
2018-03-24T16:47:54.405Z,12.62
2018-03-24T16:49:33.593Z,12.69
2018-03-24T16:51:11.143Z,12.76
2018-03-24T16:52:48.168Z,12.82
2018-03-24T16:54:25.297Z,12.81
2018-03-24T16:56:02.789Z,12.73
2018-03-24T16:57:40.788Z,12.65
2018-03-24T16:59:18.988Z,12.73
2018-03-24T17:00:56.875Z,12.58
2018-03-24T17:02:35.536Z,12.55
2018-03-24T17:04:13.437Z,12.59
2018-03-24T17:05:50.591Z,12.67
2018-03-24T17:07:28.782Z,12.68
2018-03-24T17:09:06.748Z,12.58
2018-03-24T17:10:45.005Z,12.52
2018-03-24T17:12:22.941Z,12.45
2018-03-24T17:14:00.208Z,12.48
2018-03-24T17:15:37.655Z,12.50
2018-03-24T17:17:15.163Z,12.57
2018-03-24T17:18:53.147Z,12.54
2018-03-24T17:20:30.419Z,12.53
2018-03-24T17:22:09.329Z,12.53
2018-03-24T17:23:46.898Z,12.53
2018-03-24T17:25:24.062Z,12.48
2018-03-24T17:27:01.281Z,12.42
2018-03-24T17:28:38.326Z,12.51
2018-03-24T17:30:19.300Z,12.55
2018-03-24T17:31:57.089Z,12.62
2018-03-24T17:33:34.868Z,12.66
2018-03-24T17:35:12.065Z,12.63
2018-03-24T17:36:52.361Z,12.63
2018-03-24T17:38:29.714Z,12.59
2018-03-24T17:40:08.142Z,12.55
2018-03-24T17:41:46.294Z,12.56
2018-03-24T17:43:24.157Z,12.60
2018-03-24T17:45:01.495Z,12.60
2018-03-24T17:46:39.897Z,12.76
2018-03-24T17:48:17.481Z,12.87
2018-03-24T17:49:56.455Z,13.06
2018-03-24T17:51:33.858Z,13.20
2018-03-24T17:53:10.873Z,13.16
2018-03-24T17:54:48.058Z,13.14
2018-03-24T17:56:25.483Z,13.26
2018-03-24T17:58:02.413Z,13.27
2018-03-24T17:59:41.323Z,13.47
2018-03-24T18:01:19.085Z,13.48
2018-03-24T18:02:56.823Z,13.32
2018-03-24T18:04:33.817Z,13.35
2018-03-24T18:06:10.847Z,13.38
2018-03-24T18:07:48.024Z,13.35
2018-03-24T18:09:25.525Z,13.46
2018-03-24T18:11:03.570Z,13.57
2018-03-24T18:12:40.544Z,13.58
2018-03-24T18:14:17.428Z,13.35
2018-03-24T18:15:55.376Z,13.25
2018-03-24T18:17:32.496Z,13.15
2018-03-24T18:19:10.335Z,13.13
2018-03-24T18:20:47.338Z,13.16
2018-03-24T18:22:25.619Z,12.95
2018-03-24T18:24:02.824Z,13.23
2018-03-24T18:25:40.115Z,13.05
2018-03-24T18:27:17.280Z,13.04
2018-03-24T18:28:56.277Z,12.94
2018-03-24T18:30:33.908Z,12.81
2018-03-24T18:32:11.508Z,12.74
2018-03-24T18:33:49.300Z,12.69
2018-03-24T18:35:27.969Z,12.76
2018-03-24T18:37:05.031Z,12.75
2018-03-24T18:38:42.792Z,12.68
2018-03-24T18:40:19.951Z,12.67
2018-03-24T18:41:59.217Z,12.77
2018-03-24T18:43:37.600Z,12.86
2018-03-24T18:45:26.275Z,13.01
2018-03-24T18:47:03.330Z,12.78
2018-03-24T18:48:40.584Z,12.80
2018-03-24T18:50:18.476Z,12.74
2018-03-24T18:51:56.842Z,12.69
2018-03-24T18:53:35.770Z,12.63
2018-03-24T18:55:13.092Z,12.86
2018-03-24T18:56:50.428Z,12.95
2018-03-24T18:58:27.745Z,12.62
2018-03-24T19:00:07.316Z,12.55
2018-03-24T19:01:45.779Z,12.37
2018-03-24T19:03:23.498Z,12.13
2018-03-24T19:05:01.109Z,11.92
2018-03-24T19:06:38.585Z,11.73
2018-03-24T19:08:15.663Z,11.65
2018-03-24T19:09:53.746Z,11.61
2018-03-24T19:11:30.801Z,11.55
2018-03-24T19:13:08.224Z,11.51
2018-03-24T19:14:47.641Z,11.50
2018-03-24T19:16:25.848Z,11.34
2018-03-24T19:18:02.767Z,11.13
2018-03-24T19:19:40.237Z,11.00
2018-03-24T19:21:17.296Z,11.00
2018-03-24T19:22:54.931Z,10.97
2018-03-24T19:24:32.875Z,10.89
2018-03-24T19:26:11.138Z,10.86
2018-03-24T19:27:48.270Z,10.97
2018-03-24T19:29:25.600Z,10.95
2018-03-24T19:31:02.976Z,11.12
2018-03-24T19:32:41.681Z,11.11
2018-03-24T19:34:19.206Z,10.95
2018-03-24T19:35:57.153Z,10.88
2018-03-24T19:37:34.436Z,10.77
2018-03-24T19:39:12.914Z,10.68
2018-03-24T19:40:50.917Z,10.52
2018-03-24T19:42:29.028Z,10.44
2018-03-24T19:44:06.046Z,10.39
2018-03-24T19:45:44.843Z,10.35
2018-03-24T19:47:24.083Z,10.41
2018-03-24T19:49:01.618Z,10.41
2018-03-24T19:50:38.608Z,10.47
2018-03-24T19:52:16.359Z,10.46
2018-03-24T19:53:54.788Z,10.47
2018-03-24T19:55:32.552Z,10.51
2018-03-24T19:57:09.685Z,10.58
2018-03-24T19:58:47.140Z,10.55
2018-03-24T20:00:27.063Z,10.48
2018-03-24T20:02:05.306Z,10.57
2018-03-24T20:03:43.211Z,10.68
2018-03-24T20:05:20.640Z,10.74
2018-03-24T20:06:58.340Z,10.84
2018-03-24T20:08:36.043Z,10.87
2018-03-24T20:10:13.866Z,10.94
2018-03-24T20:11:59.764Z,11.00
2018-03-24T20:13:38.175Z,11.09
2018-03-24T20:15:18.164Z,11.14
2018-03-24T20:16:56.463Z,11.15
2018-03-24T20:18:35.565Z,11.21
2018-03-24T20:20:12.513Z,11.36
2018-03-24T20:21:50.989Z,11.55
2018-03-24T20:23:28.380Z,11.72
2018-03-24T20:25:06.107Z,11.98
2018-03-24T20:26:44.890Z,12.25
2018-03-24T20:28:24.368Z,12.37
2018-03-24T20:30:02.616Z,12.47
2018-03-24T20:31:40.330Z,12.64
2018-03-24T20:33:17.132Z,12.64
2018-03-24T20:34:54.783Z,12.70
2018-03-24T20:36:33.119Z,12.68
2018-03-24T20:38:11.066Z,12.63
2018-03-24T20:39:47.878Z,12.66
2018-03-24T20:41:25.609Z,12.69
2018-03-24T20:43:02.913Z,12.68
2018-03-24T20:44:40.244Z,12.73
2018-03-24T20:46:18.510Z,12.82
2018-03-24T20:47:56.093Z,12.92
2018-03-24T20:49:33.012Z,12.98
2018-03-24T20:51:10.440Z,13.01
2018-03-24T20:52:47.267Z,12.99
2018-03-24T20:54:24.182Z,13.00
2018-03-24T20:56:01.798Z,12.97
2018-03-24T20:57:39.170Z,12.82
2018-03-24T20:59:17.106Z,12.79
2018-03-24T21:00:54.566Z,12.73
2018-03-24T21:02:31.401Z,12.69
2018-03-24T21:04:08.770Z,12.67
2018-03-24T21:05:45.727Z,12.67
2018-03-24T21:07:22.531Z,12.63
2018-03-24T21:08:59.927Z,12.62
2018-03-24T21:10:37.289Z,12.60
2018-03-24T21:12:15.042Z,12.57
2018-03-24T21:13:52.086Z,12.52
2018-03-24T21:15:30.548Z,12.48
2018-03-24T21:17:08.052Z,12.46
2018-03-24T21:18:45.128Z,12.45
2018-03-24T21:20:22.179Z,12.45
2018-03-24T21:21:59.326Z,12.45
2018-03-24T21:23:36.853Z,12.47
2018-03-24T21:25:13.830Z,12.46
2018-03-24T21:26:52.461Z,12.40
2018-03-24T21:28:29.541Z,12.38
2018-03-24T21:30:06.813Z,12.36
2018-03-24T21:31:44.108Z,12.35